Barkley Regional Airport Paducah US
ICAO: KPAH
IATA: PAH
Category: Medium
Scheduled Services: Yes

Elevation: 410 ft
TransAlt. 18000 ft.

Airport Communications:
ASOS:118.375
MEMPHIS CNTR:133.65
CTAF:119.6
GND:121.7
LOUISVILLE RDO:122.2
PADUCAH TWR:119.6
UNICOM:123

KPAH Zoom In..

If you have problems with the map follow the link
https://www.worldairports.se/pages/airport.php?
ICAO=KPAH

Runways:

(A) RW 04 length 6500 ft width 150 ft
ILS 108.50 / hdg 45

(B) RW 14 length 5499 ft width 150 ft
---- / hdg 140

(C) RW 22 length 6500 ft width 150 ft
---- / hdg 225

(D) RW 32 length 5499 ft width 150 ft
---- / hdg 320

Location; KPAH
Day. 24 / Time. 10.53 Zulu
* Altimeter: 30.10
* Temperature: 11° c. 51.8°f.
* Wind from: 140° Speed 05 kn.
Dewpoint: 02° c.
Visibility: 10 Statute Miles.
Clouds: Scattered 7500 ft.
Clouds: Overcast 9500 ft.

KPAH 241053Z 14005KT 10SM SCT075 OVC095 11/02 A3010 RMK AO2 RAB14E32 SLP193 P0000 T01060022


Wind From 140°
Speed 05 kn.

 
 
jpsmedia.com for Web Design worldairports.se 2019   terms of use